sensor_id;sensor_type;location;lat;lon;timestamp;pressure;altitude;pressure_sealevel;temperature
74485;BMP280;62942;52.462;10.846;2023-02-08T00:00:49;103309.99999999999;;;
74485;BMP280;62942;52.462;10.846;2023-02-08T00:01:59;103309.99999999999;;;
74485;BMP280;62942;52.462;10.846;2023-02-08T00:03:09;103300;;;
74485;BMP280;62942;52.462;10.846;2023-02-08T00:04:09;103309.99999999999;;;
74485;BMP280;62942;52.462;10.846;2023-02-08T00:05:19;103309.99999999999;;;
74485;BMP280;62942;52.462;10.846;2023-02-08T00:06:19;103300;;;
74485;BMP280;62942;52.462;10.846;2023-02-08T00:07:29;103309.99999999999;;;
74485;BMP280;62942;52.462;10.846;2023-02-08T00:08:39;103300;;;
74485;BMP280;62942;52.462;10.846;2023-02-08T00:09:49;103300;;;
74485;BMP280;62942;52.462;10.846;2023-02-08T00:10:49;103300;;;
74485;BMP280;62942;52.462;10.846;2023-02-08T00:11:59;103300;;;
74485;BMP280;62942;52.462;10.846;2023-02-08T00:13:09;103300;;;
74485;BMP280;62942;52.462;10.846;2023-02-08T00:14:19;103290.00000000001;;;
74485;BMP280;62942;52.462;10.846;2023-02-08T00:15:29;103290.00000000001;;;
74485;BMP280;62942;52.462;10.846;2023-02-08T00:16:39;103290.00000000001;;;
74485;BMP280;62942;52.462;10.846;2023-02-08T00:17:49;103300;;;
74485;BMP280;62942;52.462;10.846;2023-02-08T00:18:49;103300;;;
74485;BMP280;62942;52.462;10.846;2023-02-08T00:19:49;103290.00000000001;;;
74485;BMP280;62942;52.462;10.846;2023-02-08T00:20:59;103290.00000000001;;;
74485;BMP280;62942;52.462;10.846;2023-02-08T00:22:09;103290.00000000001;;;
74485;BMP280;62942;52.462;10.846;2023-02-08T00:23:19;103290.00000000001;;;
74485;BMP280;62942;52.462;10.846;2023-02-08T00:24:29;103290.00000000001;;;
74485;BMP280;62942;52.462;10.846;2023-02-08T00:25:29;103300;;;
74485;BMP280;62942;52.462;10.846;2023-02-08T00:26:39;103290.00000000001;;;
74485;BMP280;62942;52.462;10.846;2023-02-08T00:27:39;103290.00000000001;;;
74485;BMP280;62942;52.462;10.846;2023-02-08T00:28:39;103290.00000000001;;;
74485;BMP280;62942;52.462;10.846;2023-02-08T00:29:49;103300;;;
74485;BMP280;62942;52.462;10.846;2023-02-08T00:30:59;103290.00000000001;;;
74485;BMP280;62942;52.462;10.846;2023-02-08T00:32:09;103290.00000000001;;;
74485;BMP280;62942;52.462;10.846;2023-02-08T00:33:19;103290.00000000001;;;
74485;BMP280;62942;52.462;10.846;2023-02-08T00:34:29;103280;;;
74485;BMP280;62942;52.462;10.846;2023-02-08T00:35:29;103280;;;
74485;BMP280;62942;52.462;10.846;2023-02-08T00:36:29;103290.00000000001;;;
74485;BMP280;62942;52.462;10.846;2023-02-08T00:37:39;103280;;;
74485;BMP280;62942;52.462;10.846;2023-02-08T00:38:49;103280;;;
74485;BMP280;62942;52.462;10.846;2023-02-08T00:39:49;103280;;;
74485;BMP280;62942;52.462;10.846;2023-02-08T00:40:59;103290.00000000001;;;
74485;BMP280;62942;52.462;10.846;2023-02-08T00:42:09;103280;;;
74485;BMP280;62942;52.462;10.846;2023-02-08T00:43:19;103280;;;
74485;BMP280;62942;52.462;10.846;2023-02-08T00:44:29;103290.00000000001;;;
74485;BMP280;62942;52.462;10.846;2023-02-08T00:45:39;103280;;;
74485;BMP280;62942;52.462;10.846;2023-02-08T00:46:49;103280;;;
74485;BMP280;62942;52.462;10.846;2023-02-08T00:47:59;103280;;;
74485;BMP280;62942;52.462;10.846;2023-02-08T00:49:09;103280;;;
74485;BMP280;62942;52.462;10.846;2023-02-08T00:50:19;103280;;;
74485;BMP280;62942;52.462;10.846;2023-02-08T00:51:29;103280;;;
74485;BMP280;62942;52.462;10.846;2023-02-08T00:52:29;103280;;;
74485;BMP280;62942;52.462;10.846;2023-02-08T00:53:29;103290.00000000001;;;
74485;BMP280;62942;52.462;10.846;2023-02-08T00:54:39;103290.00000000001;;;
74485;BMP280;62942;52.462;10.846;2023-02-08T00:55:49;103290.00000000001;;;
74485;BMP280;62942;52.462;10.846;2023-02-08T00:56:49;103290.00000000001;;;
74485;BMP280;62942;52.462;10.846;2023-02-08T00:57:59;103290.00000000001;;;
74485;BMP280;62942;52.462;10.846;2023-02-08T00:58:59;103290.00000000001;;;
74485;BMP280;62942;52.462;10.846;2023-02-08T01:00:09;103290.00000000001;;;
74485;BMP280;62942;52.462;10.846;2023-02-08T01:01:09;103290.00000000001;;;
74485;BMP280;62942;52.462;10.846;2023-02-08T01:02:19;103290.00000000001;;;
74485;BMP280;62942;52.462;10.846;2023-02-08T01:03:29;103300;;;
74485;BMP280;62942;52.462;10.846;2023-02-08T01:04:29;103290.00000000001;;;
74485;BMP280;62942;52.462;10.846;2023-02-08T01:05:39;103270;;;
74485;BMP280;62942;52.462;10.846;2023-02-08T01:06:49;103270;;;
74485;BMP280;62942;52.462;10.846;2023-02-08T01:07:49;103270;;;
74485;BMP280;62942;52.462;10.846;2023-02-08T01:08:59;103270;;;
74485;BMP280;62942;52.462;10.846;2023-02-08T01:10:09;103270;;;
74485;BMP280;62942;52.462;10.846;2023-02-08T01:11:19;103270;;;
74485;BMP280;62942;52.462;10.846;2023-02-08T01:12:19;103270;;;
74485;BMP280;62942;52.462;10.846;2023-02-08T01:13:29;103259.99999999999;;;
74485;BMP280;62942;52.462;10.846;2023-02-08T01:14:39;103270;;;
74485;BMP280;62942;52.462;10.846;2023-02-08T01:15:39;103270;;;
74485;BMP280;62942;52.462;10.846;2023-02-08T01:16:39;103259.99999999999;;;
74485;BMP280;62942;52.462;10.846;2023-02-08T01:17:52;103270;;;
74485;BMP280;62942;52.462;10.846;2023-02-08T01:18:49;103270;;;
74485;BMP280;62942;52.462;10.846;2023-02-08T01:19:59;103259.99999999999;;;
74485;BMP280;62942;52.462;10.846;2023-02-08T01:21:02;103270;;;
74485;BMP280;62942;52.462;10.846;2023-02-08T01:22:09;103270;;;
74485;BMP280;62942;52.462;10.846;2023-02-08T01:23:19;103280;;;
74485;BMP280;62942;52.462;10.846;2023-02-08T01:24:29;103280;;;
74485;BMP280;62942;52.462;10.846;2023-02-08T01:25:39;103290.00000000001;;;
74485;BMP280;62942;52.462;10.846;2023-02-08T01:26:49;103300;;;
74485;BMP280;62942;52.462;10.846;2023-02-08T01:27:59;103290.00000000001;;;
74485;BMP280;62942;52.462;10.846;2023-02-08T01:29:09;103290.00000000001;;;
74485;BMP280;62942;52.462;10.846;2023-02-08T01:30:19;103290.00000000001;;;
74485;BMP280;62942;52.462;10.846;2023-02-08T01:31:30;103290.00000000001;;;
74485;BMP280;62942;52.462;10.846;2023-02-08T01:32:29;103300;;;
74485;BMP280;62942;52.462;10.846;2023-02-08T01:33:39;103290.00000000001;;;
74485;BMP280;62942;52.462;10.846;2023-02-08T01:34:49;103290.00000000001;;;
74485;BMP280;62942;52.462;10.846;2023-02-08T01:35:49;103290.00000000001;;;
74485;BMP280;62942;52.462;10.846;2023-02-08T01:36:59;103280;;;
74485;BMP280;62942;52.462;10.846;2023-02-08T01:38:09;103290.00000000001;;;
74485;BMP280;62942;52.462;10.846;2023-02-08T01:39:19;103280;;;
74485;BMP280;62942;52.462;10.846;2023-02-08T01:40:19;103290.00000000001;;;
74485;BMP280;62942;52.462;10.846;2023-02-08T01:41:30;103280;;;
74485;BMP280;62942;52.462;10.846;2023-02-08T01:42:39;103280;;;
74485;BMP280;62942;52.462;10.846;2023-02-08T01:43:57;103270;;;
74485;BMP280;62942;52.462;10.846;2023-02-08T01:45:54;103270;;;
74485;BMP280;62942;52.462;10.846;2023-02-08T01:45:59;103259.99999999999;;;
74485;BMP280;62942;52.462;10.846;2023-02-08T01:47:09;103259.99999999999;;;
74485;BMP280;62942;52.462;10.846;2023-02-08T01:48:20;103270;;;
74485;BMP280;62942;52.462;10.846;2023-02-08T01:49:30;103270;;;
74485;BMP280;62942;52.462;10.846;2023-02-08T01:50:41;103270;;;
74485;BMP280;62942;52.462;10.846;2023-02-08T01:51:40;103270;;;
74485;BMP280;62942;52.462;10.846;2023-02-08T01:52:49;103259.99999999999;;;
74485;BMP280;62942;52.462;10.846;2023-02-08T01:53:49;103270;;;
74485;BMP280;62942;52.462;10.846;2023-02-08T01:55:01;103270;;;
74485;BMP280;62942;52.462;10.846;2023-02-08T01:56:10;103270;;;
74485;BMP280;62942;52.462;10.846;2023-02-08T01:57:09;103270;;;
74485;BMP280;62942;52.462;10.846;2023-02-08T01:58:19;103259.99999999999;;;
74485;BMP280;62942;52.462;10.846;2023-02-08T01:59:32;103270;;;
74485;BMP280;62942;52.462;10.846;2023-02-08T02:00:39;103250;;;
74485;BMP280;62942;52.462;10.846;2023-02-08T02:01:50;103259.99999999999;;;
74485;BMP280;62942;52.462;10.846;2023-02-08T02:02:49;103259.99999999999;;;
74485;BMP280;62942;52.462;10.846;2023-02-08T02:03:59;103250;;;
74485;BMP280;62942;52.462;10.846;2023-02-08T02:05:09;103250;;;
74485;BMP280;62942;52.462;10.846;2023-02-08T02:06:21;103250;;;
74485;BMP280;62942;52.462;10.846;2023-02-08T02:07:19;103250;;;
74485;BMP280;62942;52.462;10.846;2023-02-08T02:08:19;103250;;;
74485;BMP280;62942;52.462;10.846;2023-02-08T02:09:30;103250;;;
74485;BMP280;62942;52.462;10.846;2023-02-08T02:10:39;103250;;;
74485;BMP280;62942;52.462;10.846;2023-02-08T02:11:39;103250;;;
74485;BMP280;62942;52.462;10.846;2023-02-08T02:12:49;103240.00000000001;;;
74485;BMP280;62942;52.462;10.846;2023-02-08T02:13:59;103240.00000000001;;;
74485;BMP280;62942;52.462;10.846;2023-02-08T02:15:09;103240.00000000001;;;
74485;BMP280;62942;52.462;10.846;2023-02-08T02:16:19;103230;;;
74485;BMP280;62942;52.462;10.846;2023-02-08T02:17:19;103240.00000000001;;;
74485;BMP280;62942;52.462;10.846;2023-02-08T02:18:29;103240.00000000001;;;
74485;BMP280;62942;52.462;10.846;2023-02-08T02:19:41;103230;;;
74485;BMP280;62942;52.462;10.846;2023-02-08T02:20:55;103240.00000000001;;;
74485;BMP280;62942;52.462;10.846;2023-02-08T02:22:02;103230;;;
74485;BMP280;62942;52.462;10.846;2023-02-08T02:23:07;103240.00000000001;;;
74485;BMP280;62942;52.462;10.846;2023-02-08T02:24:15;103230;;;
74485;BMP280;62942;52.462;10.846;2023-02-08T02:25:25;103230;;;
74485;BMP280;62942;52.462;10.846;2023-02-08T02:26:34;103250;;;
74485;BMP280;62942;52.462;10.846;2023-02-08T02:27:44;103250;;;
74485;BMP280;62942;52.462;10.846;2023-02-08T02:28:45;103240.00000000001;;;
74485;BMP280;62942;52.462;10.846;2023-02-08T02:29:55;103240.00000000001;;;
74485;BMP280;62942;52.462;10.846;2023-02-08T02:31:05;103240.00000000001;;;
74485;BMP280;62942;52.462;10.846;2023-02-08T02:32:12;103240.00000000001;;;
74485;BMP280;62942;52.462;10.846;2023-02-08T02:33:22;103240.00000000001;;;
74485;BMP280;62942;52.462;10.846;2023-02-08T02:34:30;103240.00000000001;;;
74485;BMP280;62942;52.462;10.846;2023-02-08T02:35:31;103230;;;
74485;BMP280;62942;52.462;10.846;2023-02-08T02:36:32;103230;;;
74485;BMP280;62942;52.462;10.846;2023-02-08T02:37:46;103230;;;
74485;BMP280;62942;52.462;10.846;2023-02-08T02:38:40;103240.00000000001;;;
74485;BMP280;62942;52.462;10.846;2023-02-08T02:39:40;103240.00000000001;;;
74485;BMP280;62942;52.462;10.846;2023-02-08T02:40:50;103250;;;
74485;BMP280;62942;52.462;10.846;2023-02-08T02:42:00;103250;;;
74485;BMP280;62942;52.462;10.846;2023-02-08T02:43:00;103250;;;
74485;BMP280;62942;52.462;10.846;2023-02-08T02:44:11;103240.00000000001;;;
74485;BMP280;62942;52.462;10.846;2023-02-08T02:45:11;103240.00000000001;;;
74485;BMP280;62942;52.462;10.846;2023-02-08T02:46:21;103250;;;
74485;BMP280;62942;52.462;10.846;2023-02-08T02:47:30;103250;;;
74485;BMP280;62942;52.462;10.846;2023-02-08T02:48:29;103240.00000000001;;;
74485;BMP280;62942;52.462;10.846;2023-02-08T02:49:42;103240.00000000001;;;
74485;BMP280;62942;52.462;10.846;2023-02-08T02:50:50;103250;;;
74485;BMP280;62942;52.462;10.846;2023-02-08T02:51:50;103250;;;
74485;BMP280;62942;52.462;10.846;2023-02-08T02:52:59;103250;;;
74485;BMP280;62942;52.462;10.846;2023-02-08T02:53:59;103250;;;
74485;BMP280;62942;52.462;10.846;2023-02-08T02:55:09;103250;;;
74485;BMP280;62942;52.462;10.846;2023-02-08T02:56:20;103250;;;
74485;BMP280;62942;52.462;10.846;2023-02-08T02:57:29;103250;;;
74485;BMP280;62942;52.462;10.846;2023-02-08T02:58:39;103250;;;
74485;BMP280;62942;52.462;10.846;2023-02-08T02:59:49;103250;;;
74485;BMP280;62942;52.462;10.846;2023-02-08T03:00:59;103250;;;
74485;BMP280;62942;52.462;10.846;2023-02-08T03:01:59;103250;;;
74485;BMP280;62942;52.462;10.846;2023-02-08T03:02:59;103250;;;
74485;BMP280;62942;52.462;10.846;2023-02-08T03:04:13;103250;;;
74485;BMP280;62942;52.462;10.846;2023-02-08T03:05:19;103250;;;
74485;BMP280;62942;52.462;10.846;2023-02-08T03:06:21;103250;;;
74485;BMP280;62942;52.462;10.846;2023-02-08T03:07:34;103250;;;
74485;BMP280;62942;52.462;10.846;2023-02-08T03:08:46;103250;;;
74485;BMP280;62942;52.462;10.846;2023-02-08T03:09:51;103250;;;
74485;BMP280;62942;52.462;10.846;2023-02-08T03:11:14;103240.00000000001;;;
74485;BMP280;62942;52.462;10.846;2023-02-08T03:12:01;103240.00000000001;;;
74485;BMP280;62942;52.462;10.846;2023-02-08T03:13:10;103240.00000000001;;;
74485;BMP280;62942;52.462;10.846;2023-02-08T03:14:14;103240.00000000001;;;
74485;BMP280;62942;52.462;10.846;2023-02-08T03:15:11;103240.00000000001;;;
74485;BMP280;62942;52.462;10.846;2023-02-08T03:16:19;103240.00000000001;;;
74485;BMP280;62942;52.462;10.846;2023-02-08T03:17:32;103240.00000000001;;;
74485;BMP280;62942;52.462;10.846;2023-02-08T03:18:40;103240.00000000001;;;
74485;BMP280;62942;52.462;10.846;2023-02-08T03:19:51;103240.00000000001;;;
74485;BMP280;62942;52.462;10.846;2023-02-08T03:21:00;103240.00000000001;;;
74485;BMP280;62942;52.462;10.846;2023-02-08T03:22:11;103240.00000000001;;;
74485;BMP280;62942;52.462;10.846;2023-02-08T03:23:20;103240.00000000001;;;
74485;BMP280;62942;52.462;10.846;2023-02-08T03:24:21;103250;;;
74485;BMP280;62942;52.462;10.846;2023-02-08T03:25:32;103240.00000000001;;;
74485;BMP280;62942;52.462;10.846;2023-02-08T03:26:40;103240.00000000001;;;
74485;BMP280;62942;52.462;10.846;2023-02-08T03:27:51;103250;;;
74485;BMP280;62942;52.462;10.846;2023-02-08T03:29:01;103240.00000000001;;;
74485;BMP280;62942;52.462;10.846;2023-02-08T03:30:09;103240.00000000001;;;
74485;BMP280;62942;52.462;10.846;2023-02-08T03:31:21;103240.00000000001;;;
74485;BMP280;62942;52.462;10.846;2023-02-08T03:32:31;103240.00000000001;;;
74485;BMP280;62942;52.462;10.846;2023-02-08T03:33:39;103250;;;
74485;BMP280;62942;52.462;10.846;2023-02-08T03:34:50;103240.00000000001;;;
74485;BMP280;62942;52.462;10.846;2023-02-08T03:36:00;103250;;;
74485;BMP280;62942;52.462;10.846;2023-02-08T03:37:09;103250;;;
74485;BMP280;62942;52.462;10.846;2023-02-08T03:38:20;103240.00000000001;;;
74485;BMP280;62942;52.462;10.846;2023-02-08T03:39:20;103240.00000000001;;;
74485;BMP280;62942;52.462;10.846;2023-02-08T03:40:30;103250;;;
74485;BMP280;62942;52.462;10.846;2023-02-08T03:41:29;103240.00000000001;;;
74485;BMP280;62942;52.462;10.846;2023-02-08T03:42:39;103250;;;
74485;BMP280;62942;52.462;10.846;2023-02-08T03:43:49;103240.00000000001;;;
74485;BMP280;62942;52.462;10.846;2023-02-08T03:44:59;103240.00000000001;;;
74485;BMP280;62942;52.462;10.846;2023-02-08T03:46:10;103250;;;
74485;BMP280;62942;52.462;10.846;2023-02-08T03:47:20;103240.00000000001;;;
74485;BMP280;62942;52.462;10.846;2023-02-08T03:48:19;103240.00000000001;;;
74485;BMP280;62942;52.462;10.846;2023-02-08T03:49:29;103240.00000000001;;;
74485;BMP280;62942;52.462;10.846;2023-02-08T03:50:39;103240.00000000001;;;
74485;BMP280;62942;52.462;10.846;2023-02-08T03:51:49;103240.00000000001;;;
74485;BMP280;62942;52.462;10.846;2023-02-08T03:52:59;103240.00000000001;;;
74485;BMP280;62942;52.462;10.846;2023-02-08T03:54:09;103240.00000000001;;;
74485;BMP280;62942;52.462;10.846;2023-02-08T03:55:19;103250;;;
74485;BMP280;62942;52.462;10.846;2023-02-08T03:56:30;103250;;;
74485;BMP280;62942;52.462;10.846;2023-02-08T03:57:39;103240.00000000001;;;
74485;BMP280;62942;52.462;10.846;2023-02-08T03:58:50;103250;;;
74485;BMP280;62942;52.462;10.846;2023-02-08T04:00:00;103240.00000000001;;;
74485;BMP280;62942;52.462;10.846;2023-02-08T04:01:01;103250;;;
74485;BMP280;62942;52.462;10.846;2023-02-08T04:02:01;103250;;;
74485;BMP280;62942;52.462;10.846;2023-02-08T04:03:10;103240.00000000001;;;
74485;BMP280;62942;52.462;10.846;2023-02-08T04:04:19;103240.00000000001;;;
74485;BMP280;62942;52.462;10.846;2023-02-08T04:05:29;103240.00000000001;;;
74485;BMP280;62942;52.462;10.846;2023-02-08T04:06:39;103250;;;
74485;BMP280;62942;52.462;10.846;2023-02-08T04:07:49;103240.00000000001;;;
74485;BMP280;62942;52.462;10.846;2023-02-08T04:08:59;103240.00000000001;;;
74485;BMP280;62942;52.462;10.846;2023-02-08T04:10:09;103250;;;
74485;BMP280;62942;52.462;10.846;2023-02-08T04:11:09;103240.00000000001;;;
74485;BMP280;62942;52.462;10.846;2023-02-08T04:12:19;103240.00000000001;;;
74485;BMP280;62942;52.462;10.846;2023-02-08T04:13:19;103250;;;
74485;BMP280;62942;52.462;10.846;2023-02-08T04:14:29;103250;;;
74485;BMP280;62942;52.462;10.846;2023-02-08T04:15:29;103250;;;
74485;BMP280;62942;52.462;10.846;2023-02-08T04:16:39;103250;;;
74485;BMP280;62942;52.462;10.846;2023-02-08T04:17:39;103250;;;
74485;BMP280;62942;52.462;10.846;2023-02-08T04:18:49;103250;;;
74485;BMP280;62942;52.462;10.846;2023-02-08T04:19:59;103250;;;
74485;BMP280;62942;52.462;10.846;2023-02-08T04:21:09;103250;;;
74485;BMP280;62942;52.462;10.846;2023-02-08T04:22:19;103240.00000000001;;;
74485;BMP280;62942;52.462;10.846;2023-02-08T04:23:19;103240.00000000001;;;
74485;BMP280;62942;52.462;10.846;2023-02-08T04:24:29;103250;;;
74485;BMP280;62942;52.462;10.846;2023-02-08T04:25:39;103240.00000000001;;;
74485;BMP280;62942;52.462;10.846;2023-02-08T04:26:49;103240.00000000001;;;
74485;BMP280;62942;52.462;10.846;2023-02-08T04:27:59;103240.00000000001;;;
74485;BMP280;62942;52.462;10.846;2023-02-08T04:28:59;103240.00000000001;;;
74485;BMP280;62942;52.462;10.846;2023-02-08T04:30:09;103240.00000000001;;;
74485;BMP280;62942;52.462;10.846;2023-02-08T04:31:18;103240.00000000001;;;
74485;BMP280;62942;52.462;10.846;2023-02-08T04:32:19;103250;;;
74485;BMP280;62942;52.462;10.846;2023-02-08T04:33:29;103240.00000000001;;;
74485;BMP280;62942;52.462;10.846;2023-02-08T04:34:39;103240.00000000001;;;
74485;BMP280;62942;52.462;10.846;2023-02-08T04:35:48;103230;;;
74485;BMP280;62942;52.462;10.846;2023-02-08T04:36:58;103240.00000000001;;;
74485;BMP280;62942;52.462;10.846;2023-02-08T04:38:09;103240.00000000001;;;
74485;BMP280;62942;52.462;10.846;2023-02-08T04:39:09;103240.00000000001;;;
74485;BMP280;62942;52.462;10.846;2023-02-08T04:40:09;103240.00000000001;;;
74485;BMP280;62942;52.462;10.846;2023-02-08T04:41:19;103240.00000000001;;;
74485;BMP280;62942;52.462;10.846;2023-02-08T04:42:28;103250;;;
74485;BMP280;62942;52.462;10.846;2023-02-08T04:43:39;103250;;;
74485;BMP280;62942;52.462;10.846;2023-02-08T04:44:48;103250;;;
74485;BMP280;62942;52.462;10.846;2023-02-08T04:45:58;103250;;;
74485;BMP280;62942;52.462;10.846;2023-02-08T04:47:09;103240.00000000001;;;
74485;BMP280;62942;52.462;10.846;2023-02-08T04:48:19;103240.00000000001;;;
74485;BMP280;62942;52.462;10.846;2023-02-08T04:49:29;103230;;;
74485;BMP280;62942;52.462;10.846;2023-02-08T04:50:38;103240.00000000001;;;
74485;BMP280;62942;52.462;10.846;2023-02-08T04:51:48;103250;;;
74485;BMP280;62942;52.462;10.846;2023-02-08T04:52:48;103240.00000000001;;;
74485;BMP280;62942;52.462;10.846;2023-02-08T04:53:59;103240.00000000001;;;
74485;BMP280;62942;52.462;10.846;2023-02-08T04:54:58;103240.00000000001;;;
74485;BMP280;62942;52.462;10.846;2023-02-08T04:56:08;103240.00000000001;;;
74485;BMP280;62942;52.462;10.846;2023-02-08T04:57:18;103250;;;
74485;BMP280;62942;52.462;10.846;2023-02-08T04:58:19;103259.99999999999;;;
74485;BMP280;62942;52.462;10.846;2023-02-08T04:59:28;103259.99999999999;;;
74485;BMP280;62942;52.462;10.846;2023-02-08T05:00:38;103259.99999999999;;;
74485;BMP280;62942;52.462;10.846;2023-02-08T05:01:48;103259.99999999999;;;
74485;BMP280;62942;52.462;10.846;2023-02-08T05:02:58;103259.99999999999;;;
74485;BMP280;62942;52.462;10.846;2023-02-08T05:03:58;103250;;;
74485;BMP280;62942;52.462;10.846;2023-02-08T05:05:09;103259.99999999999;;;
74485;BMP280;62942;52.462;10.846;2023-02-08T05:06:18;103259.99999999999;;;
74485;BMP280;62942;52.462;10.846;2023-02-08T05:07:29;103259.99999999999;;;
74485;BMP280;62942;52.462;10.846;2023-02-08T05:08:39;103250;;;
74485;BMP280;62942;52.462;10.846;2023-02-08T05:09:48;103259.99999999999;;;
74485;BMP280;62942;52.462;10.846;2023-02-08T05:10:48;103259.99999999999;;;
74485;BMP280;62942;52.462;10.846;2023-02-08T05:11:58;103259.99999999999;;;
74485;BMP280;62942;52.462;10.846;2023-02-08T05:13:08;103259.99999999999;;;
74485;BMP280;62942;52.462;10.846;2023-02-08T05:14:08;103259.99999999999;;;
74485;BMP280;62942;52.462;10.846;2023-02-08T05:15:18;103250;;;
74485;BMP280;62942;52.462;10.846;2023-02-08T05:16:28;103259.99999999999;;;
74485;BMP280;62942;52.462;10.846;2023-02-08T05:17:38;103270;;;
74485;BMP280;62942;52.462;10.846;2023-02-08T05:18:48;103270;;;
74485;BMP280;62942;52.462;10.846;2023-02-08T05:19:58;103270;;;
74485;BMP280;62942;52.462;10.846;2023-02-08T05:21:09;103270;;;
74485;BMP280;62942;52.462;10.846;2023-02-08T05:22:18;103270;;;
74485;BMP280;62942;52.462;10.846;2023-02-08T05:23:29;103270;;;
74485;BMP280;62942;52.462;10.846;2023-02-08T05:24:38;103270;;;
74485;BMP280;62942;52.462;10.846;2023-02-08T05:25:38;103270;;;
74485;BMP280;62942;52.462;10.846;2023-02-08T05:26:48;103259.99999999999;;;
74485;BMP280;62942;52.462;10.846;2023-02-08T05:27:59;103280;;;
74485;BMP280;62942;52.462;10.846;2023-02-08T05:29:08;103270;;;
74485;BMP280;62942;52.462;10.846;2023-02-08T05:30:09;103280;;;
74485;BMP280;62942;52.462;10.846;2023-02-08T05:31:19;103270;;;
74485;BMP280;62942;52.462;10.846;2023-02-08T05:32:28;103259.99999999999;;;
74485;BMP280;62942;52.462;10.846;2023-02-08T05:33:38;103270;;;
74485;BMP280;62942;52.462;10.846;2023-02-08T05:34:48;103270;;;
74485;BMP280;62942;52.462;10.846;2023-02-08T05:35:58;103270;;;
74485;BMP280;62942;52.462;10.846;2023-02-08T05:37:08;103270;;;
74485;BMP280;62942;52.462;10.846;2023-02-08T05:38:18;103270;;;
74485;BMP280;62942;52.462;10.846;2023-02-08T05:39:28;103259.99999999999;;;
74485;BMP280;62942;52.462;10.846;2023-02-08T05:40:38;103259.99999999999;;;
74485;BMP280;62942;52.462;10.846;2023-02-08T05:41:38;103259.99999999999;;;
74485;BMP280;62942;52.462;10.846;2023-02-08T05:42:48;103259.99999999999;;;
74485;BMP280;62942;52.462;10.846;2023-02-08T05:43:58;103259.99999999999;;;
74485;BMP280;62942;52.462;10.846;2023-02-08T05:45:08;103259.99999999999;;;
74485;BMP280;62942;52.462;10.846;2023-02-08T05:46:08;103259.99999999999;;;
74485;BMP280;62942;52.462;10.846;2023-02-08T05:47:08;103259.99999999999;;;
74485;BMP280;62942;52.462;10.846;2023-02-08T05:48:19;103240.00000000001;;;
74485;BMP280;62942;52.462;10.846;2023-02-08T05:49:28;103259.99999999999;;;
74485;BMP280;62942;52.462;10.846;2023-02-08T05:50:38;103259.99999999999;;;
74485;BMP280;62942;52.462;10.846;2023-02-08T05:51:48;103250;;;
74485;BMP280;62942;52.462;10.846;2023-02-08T05:52:58;103259.99999999999;;;
74485;BMP280;62942;52.462;10.846;2023-02-08T05:54:08;103250;;;
74485;BMP280;62942;52.462;10.846;2023-02-08T05:55:08;103259.99999999999;;;
74485;BMP280;62942;52.462;10.846;2023-02-08T05:56:08;103259.99999999999;;;
74485;BMP280;62942;52.462;10.846;2023-02-08T05:57:08;103250;;;
74485;BMP280;62942;52.462;10.846;2023-02-08T05:58:18;103259.99999999999;;;
74485;BMP280;62942;52.462;10.846;2023-02-08T05:59:18;103259.99999999999;;;
74485;BMP280;62942;52.462;10.846;2023-02-08T06:00:28;103259.99999999999;;;
74485;BMP280;62942;52.462;10.846;2023-02-08T06:01:38;103270;;;
74485;BMP280;62942;52.462;10.846;2023-02-08T06:02:38;103270;;;
74485;BMP280;62942;52.462;10.846;2023-02-08T06:03:48;103259.99999999999;;;
74485;BMP280;62942;52.462;10.846;2023-02-08T06:04:48;103259.99999999999;;;
74485;BMP280;62942;52.462;10.846;2023-02-08T06:05:58;103259.99999999999;;;
74485;BMP280;62942;52.462;10.846;2023-02-08T06:07:08;103259.99999999999;;;
74485;BMP280;62942;52.462;10.846;2023-02-08T06:08:18;103259.99999999999;;;
74485;BMP280;62942;52.462;10.846;2023-02-08T06:09:18;103259.99999999999;;;
74485;BMP280;62942;52.462;10.846;2023-02-08T06:10:18;103259.99999999999;;;
74485;BMP280;62942;52.462;10.846;2023-02-08T06:11:28;103250;;;
74485;BMP280;62942;52.462;10.846;2023-02-08T06:12:28;103259.99999999999;;;
74485;BMP280;62942;52.462;10.846;2023-02-08T06:13:28;103259.99999999999;;;
74485;BMP280;62942;52.462;10.846;2023-02-08T06:14:38;103259.99999999999;;;
74485;BMP280;62942;52.462;10.846;2023-02-08T06:15:48;103259.99999999999;;;
74485;BMP280;62942;52.462;10.846;2023-02-08T06:16:58;103259.99999999999;;;
74485;BMP280;62942;52.462;10.846;2023-02-08T06:17:58;103250;;;
74485;BMP280;62942;52.462;10.846;2023-02-08T06:18:58;103259.99999999999;;;
74485;BMP280;62942;52.462;10.846;2023-02-08T06:20:08;103259.99999999999;;;
74485;BMP280;62942;52.462;10.846;2023-02-08T06:21:08;103259.99999999999;;;
74485;BMP280;62942;52.462;10.846;2023-02-08T06:22:18;103250;;;
74485;BMP280;62942;52.462;10.846;2023-02-08T06:23:18;103259.99999999999;;;
74485;BMP280;62942;52.462;10.846;2023-02-08T06:24:28;103240.00000000001;;;
74485;BMP280;62942;52.462;10.846;2023-02-08T06:25:38;103250;;;